SWA435 KDEN-KMTJ
Flight info
| Callsign | SWA435 |
|---|---|
| Flight time | 0h 32m |
| Altitude | 23000 |
| Route | BAYLR6 TEHRU DIRDY |
| Aircraft | B738/M-SADE2E3GIJ4RWZ/LB1D1 |
Departure
| Time | 2026-05-04 20:24 |
|---|---|
| Airport | Denver International Airport (KDEN) |
Arrival
| Time | 2026-05-04 20:57 |
|---|---|
| Airport | Montrose Regional Airport (KMTJ) |
| Time | Latitude | Longitude | Altitude | Speed | Heading |
|---|---|---|---|---|---|
| 2026-05-04 19:58 | 39.86257 | -104.67033 | 5376 ft | 0 kts | 1° |
| 2026-05-04 20:10 | 39.86248 | -104.67033 | 5373 ft | 3 kts | 1° |
| 2026-05-04 20:11 | 39.86228 | -104.67034 | 5375 ft | 3 kts | 1° |
| 2026-05-04 20:11 | 39.86207 | -104.67034 | 5375 ft | 3 kts | 358° |
| 2026-05-04 20:11 | 39.86187 | -104.67032 | 5375 ft | 3 kts | 353° |
| 2026-05-04 20:11 | 39.86167 | -104.67029 | 5372 ft | 3 kts | 346° |
| 2026-05-04 20:12 | 39.86149 | -104.67022 | 5375 ft | 2 kts | 335° |
| 2026-05-04 20:12 | 39.86146 | -104.67019 | 5375 ft | 0 kts | 334° |
| 2026-05-04 20:12 | 39.86146 | -104.67020 | 5375 ft | 0 kts | 334° |
| 2026-05-04 20:14 | 39.86147 | -104.67021 | 5375 ft | 1 kts | 330° |
| 2026-05-04 20:14 | 39.86154 | -104.67036 | 5373 ft | 3 kts | 291° |
| 2026-05-04 20:15 | 39.86156 | -104.67074 | 5375 ft | 6 kts | 269° |
| 2026-05-04 20:15 | 39.86154 | -104.67161 | 5376 ft | 18 kts | 267° |
| 2026-05-04 20:15 | 39.86140 | -104.67401 | 5376 ft | 31 kts | 265° |
| 2026-05-04 20:15 | 39.86136 | -104.67686 | 5376 ft | 27 kts | 270° |
| 2026-05-04 20:16 | 39.86115 | -104.67899 | 5380 ft | 23 kts | 246° |
| 2026-05-04 20:16 | 39.86064 | -104.68019 | 5380 ft | 10 kts | 243° |
| 2026-05-04 20:16 | 39.86048 | -104.68107 | 5382 ft | 10 kts | 262° |
| 2026-05-04 20:16 | 39.86039 | -104.68193 | 5386 ft | 10 kts | 263° |
| 2026-05-04 20:17 | 39.86035 | -104.68311 | 5387 ft | 20 kts | 269° |
| 2026-05-04 20:17 | 39.86034 | -104.68549 | 5388 ft | 33 kts | 270° |
| 2026-05-04 20:17 | 39.86036 | -104.68862 | 5383 ft | 35 kts | 270° |
| 2026-05-04 20:17 | 39.86038 | -104.69166 | 5369 ft | 24 kts | 275° |
| 2026-05-04 20:18 | 39.86043 | -104.69270 | 5363 ft | 0 kts | 269° |
| 2026-05-04 20:18 | 39.86042 | -104.69302 | 5361 ft | 7 kts | 269° |
| 2026-05-04 20:18 | 39.86049 | -104.69393 | 5351 ft | 8 kts | 287° |
| 2026-05-04 20:18 | 39.86037 | -104.69425 | 5346 ft | 5 kts | 151° |
| 2026-05-04 20:19 | 39.86033 | -104.69378 | 5351 ft | 5 kts | 84° |
| 2026-05-04 20:19 | 39.86038 | -104.69331 | 5358 ft | 5 kts | 82° |
| 2026-05-04 20:19 | 39.86041 | -104.69284 | 5362 ft | 5 kts | 86° |
| 2026-05-04 20:19 | 39.86040 | -104.69238 | 5364 ft | 5 kts | 94° |
| 2026-05-04 20:20 | 39.86038 | -104.69192 | 5366 ft | 5 kts | 91° |
| 2026-05-04 20:20 | 39.86038 | -104.69148 | 5369 ft | 5 kts | 89° |
| 2026-05-04 20:20 | 39.86074 | -104.69111 | 5374 ft | 13 kts | 349° |
| 2026-05-04 20:20 | 39.86179 | -104.69174 | 5372 ft | 7 kts | 332° |
| 2026-05-04 20:21 | 39.86183 | -104.69177 | 5373 ft | 1 kts | 335° |
| 2026-05-04 20:21 | 39.86186 | -104.69168 | 5375 ft | 1 kts | 107° |
| 2026-05-04 20:21 | 39.86072 | -104.69090 | 5376 ft | 16 kts | 142° |
| 2026-05-04 20:22 | 39.86040 | -104.69006 | 5379 ft | 16 kts | 100° |
| 2026-05-04 20:22 | 39.86035 | -104.68797 | 5385 ft | 36 kts | 90° |
| 2026-05-04 20:22 | 39.86051 | -104.68530 | 5388 ft | 22 kts | 49° |
| 2026-05-04 20:22 | 39.86200 | -104.68509 | 5391 ft | 24 kts | 359° |
| 2026-05-04 20:23 | 39.86388 | -104.68517 | 5396 ft | 26 kts | 342° |
| 2026-05-04 20:23 | 39.86442 | -104.68686 | 5395 ft | 10 kts | 306° |
| 2026-05-04 20:23 | 39.86542 | -104.68715 | 5395 ft | 30 kts | 359° |
| 2026-05-04 20:23 | 39.86988 | -104.68713 | 5385 ft | 99 kts | 0° |
| 2026-05-04 20:24 | 39.87876 | -104.68699 | 5386 ft | 154 kts | 1° |
| 2026-05-04 20:24 | 39.89055 | -104.68615 | 5741 ft | 180 kts | 0° |
| 2026-05-04 20:24 | 39.90375 | -104.68485 | 6358 ft | 197 kts | 2° |
| 2026-05-04 20:24 | 39.91751 | -104.68491 | 6790 ft | 209 kts | 341° |
| 2026-05-04 20:25 | 39.92932 | -104.69649 | 6956 ft | 227 kts | 298° |
| 2026-05-04 20:25 | 39.93227 | -104.71725 | 7152 ft | 247 kts | 258° |
| 2026-05-04 20:25 | 39.92371 | -104.73668 | 7692 ft | 254 kts | 222° |
| 2026-05-04 20:25 | 39.90914 | -104.74968 | 8288 ft | 259 kts | 218° |
| 2026-05-04 20:26 | 39.89504 | -104.76472 | 8894 ft | 263 kts | 222° |
| 2026-05-04 20:26 | 39.88114 | -104.78013 | 9677 ft | 262 kts | 223° |
| 2026-05-04 20:26 | 39.86691 | -104.79624 | 10091 ft | 282 kts | 222° |
| 2026-05-04 20:26 | 39.85185 | -104.81362 | 10732 ft | 293 kts | 222° |
| 2026-05-04 20:27 | 39.83669 | -104.83133 | 11725 ft | 292 kts | 223° |
| 2026-05-04 20:27 | 39.82150 | -104.84927 | 12575 ft | 299 kts | 223° |
| 2026-05-04 20:27 | 39.80606 | -104.86756 | 13514 ft | 301 kts | 224° |
| 2026-05-04 20:27 | 39.79052 | -104.88597 | 14365 ft | 304 kts | 223° |
| 2026-05-04 20:28 | 39.77651 | -104.90612 | 15199 ft | 303 kts | 243° |
| 2026-05-04 20:28 | 39.76863 | -104.93192 | 15755 ft | 317 kts | 252° |
| 2026-05-04 20:28 | 39.76231 | -104.96074 | 15906 ft | 343 kts | 255° |
| 2026-05-04 20:28 | 39.75583 | -104.99183 | 16080 ft | 366 kts | 255° |
| 2026-05-04 20:29 | 39.74890 | -105.02425 | 16605 ft | 377 kts | 253° |
| 2026-05-04 20:29 | 39.74022 | -105.05644 | 17412 ft | 379 kts | 248° |
| 2026-05-04 20:29 | 39.72987 | -105.08766 | 18126 ft | 384 kts | 246° |
| 2026-05-04 20:29 | 39.71890 | -105.11933 | 18771 ft | 387 kts | 246° |
| 2026-05-04 20:30 | 39.70790 | -105.15138 | 19441 ft | 389 kts | 246° |
| 2026-05-04 20:30 | 39.69705 | -105.18369 | 20123 ft | 391 kts | 247° |
| 2026-05-04 20:30 | 39.68632 | -105.21630 | 20758 ft | 394 kts | 248° |
| 2026-05-04 20:30 | 39.67552 | -105.24916 | 21422 ft | 396 kts | 248° |
| 2026-05-04 20:31 | 39.66466 | -105.28217 | 22052 ft | 399 kts | 248° |
| 2026-05-04 20:31 | 39.65373 | -105.31535 | 22684 ft | 400 kts | 248° |
| 2026-05-04 20:31 | 39.64279 | -105.34851 | 22884 ft | 399 kts | 248° |
| 2026-05-04 20:31 | 39.63188 | -105.38156 | 22902 ft | 398 kts | 248° |
| 2026-05-04 20:32 | 39.62099 | -105.41458 | 22897 ft | 398 kts | 248° |
| 2026-05-04 20:32 | 39.61008 | -105.44767 | 22912 ft | 399 kts | 248° |
| 2026-05-04 20:32 | 39.59916 | -105.48073 | 22915 ft | 399 kts | 248° |
| 2026-05-04 20:32 | 39.58818 | -105.51390 | 22938 ft | 399 kts | 248° |
| 2026-05-04 20:33 | 39.57716 | -105.54694 | 22938 ft | 399 kts | 248° |
| 2026-05-04 20:33 | 39.56613 | -105.57996 | 22934 ft | 399 kts | 248° |
| 2026-05-04 20:33 | 39.55497 | -105.61337 | 22952 ft | 410 kts | 248° |
| 2026-05-04 20:33 | 39.54419 | -105.64815 | 22945 ft | 422 kts | 250° |
| 2026-05-04 20:34 | 39.53409 | -105.68429 | 22972 ft | 432 kts | 252° |
| 2026-05-04 20:34 | 39.52412 | -105.72133 | 22955 ft | 439 kts | 252° |
| 2026-05-04 20:34 | 39.51401 | -105.75895 | 22941 ft | 441 kts | 252° |
| 2026-05-04 20:34 | 39.50399 | -105.79586 | 22962 ft | 440 kts | 251° |
| 2026-05-04 20:35 | 39.49376 | -105.83316 | 22960 ft | 440 kts | 251° |
| 2026-05-04 20:35 | 39.48347 | -105.87035 | 22972 ft | 439 kts | 251° |
| 2026-05-04 20:35 | 39.47308 | -105.90748 | 22976 ft | 439 kts | 251° |
| 2026-05-04 20:35 | 39.46269 | -105.94464 | 22959 ft | 439 kts | 251° |
| 2026-05-04 20:36 | 39.45231 | -105.98186 | 22968 ft | 440 kts | 251° |
| 2026-05-04 20:36 | 39.44189 | -106.01910 | 22956 ft | 440 kts | 251° |
| 2026-05-04 20:36 | 39.43145 | -106.05635 | 22950 ft | 440 kts | 251° |
| 2026-05-04 20:36 | 39.42102 | -106.09349 | 22952 ft | 439 kts | 251° |
| 2026-05-04 20:37 | 39.41057 | -106.13063 | 22965 ft | 439 kts | 251° |
| 2026-05-04 20:37 | 39.40011 | -106.16777 | 22951 ft | 440 kts | 251° |
| 2026-05-04 20:37 | 39.38967 | -106.20491 | 22965 ft | 439 kts | 251° |
| 2026-05-04 20:37 | 39.37920 | -106.24202 | 22969 ft | 439 kts | 251° |
| 2026-05-04 20:38 | 39.36877 | -106.27900 | 23195 ft | 439 kts | 251° |
| 2026-05-04 20:38 | 39.35829 | -106.31612 | 23195 ft | 439 kts | 251° |
| 2026-05-04 20:38 | 39.34783 | -106.35313 | 23195 ft | 439 kts | 251° |
| 2026-05-04 20:38 | 39.33738 | -106.39002 | 23195 ft | 435 kts | 251° |
| 2026-05-04 20:39 | 39.32701 | -106.42654 | 23183 ft | 430 kts | 251° |
| 2026-05-04 20:39 | 39.31669 | -106.46291 | 23195 ft | 433 kts | 251° |
| 2026-05-04 20:39 | 39.30628 | -106.49953 | 23172 ft | 433 kts | 251° |
| 2026-05-04 20:39 | 39.29588 | -106.53606 | 23143 ft | 434 kts | 251° |
| 2026-05-04 20:40 | 39.28549 | -106.57261 | 23130 ft | 434 kts | 251° |
| 2026-05-04 20:40 | 39.27506 | -106.60916 | 23075 ft | 435 kts | 251° |
| 2026-05-04 20:40 | 39.26453 | -106.64571 | 23077 ft | 433 kts | 252° |
| 2026-05-04 20:40 | 39.25412 | -106.68203 | 23098 ft | 429 kts | 252° |
| 2026-05-04 20:41 | 39.24381 | -106.71803 | 23121 ft | 427 kts | 251° |
| 2026-05-04 20:41 | 39.23218 | -106.75329 | 23144 ft | 427 kts | 247° |
| 2026-05-04 20:41 | 39.21915 | -106.78713 | 23146 ft | 426 kts | 245° |
| 2026-05-04 20:41 | 39.20545 | -106.82099 | 23159 ft | 426 kts | 245° |
| 2026-05-04 20:42 | 39.19165 | -106.85483 | 23144 ft | 426 kts | 245° |
| 2026-05-04 20:42 | 39.17796 | -106.88867 | 22953 ft | 426 kts | 245° |
| 2026-05-04 20:42 | 39.16457 | -106.92215 | 22939 ft | 409 kts | 245° |
| 2026-05-04 20:42 | 39.15199 | -106.95393 | 22955 ft | 387 kts | 246° |
| 2026-05-04 20:43 | 39.14004 | -106.98415 | 22961 ft | 370 kts | 246° |
| 2026-05-04 20:43 | 39.12839 | -107.01360 | 22712 ft | 372 kts | 246° |
| 2026-05-04 20:43 | 39.11678 | -107.04318 | 22309 ft | 368 kts | 245° |
| 2026-05-04 20:43 | 39.10643 | -107.06956 | 21902 ft | 363 kts | 245° |
| 2026-05-04 20:44 | 39.09539 | -107.09777 | 21407 ft | 359 kts | 245° |
| 2026-05-04 20:44 | 39.08418 | -107.12634 | 20921 ft | 355 kts | 245° |
| 2026-05-04 20:44 | 39.07303 | -107.15461 | 20441 ft | 353 kts | 245° |
| 2026-05-04 20:44 | 39.06194 | -107.18268 | 19947 ft | 351 kts | 245° |
| 2026-05-04 20:45 | 39.05088 | -107.21066 | 19460 ft | 348 kts | 244° |
| 2026-05-04 20:45 | 39.03994 | -107.23831 | 18991 ft | 346 kts | 244° |
| 2026-05-04 20:45 | 39.02905 | -107.26588 | 18534 ft | 344 kts | 244° |
| 2026-05-04 20:45 | 39.01820 | -107.29322 | 18056 ft | 343 kts | 244° |
| 2026-05-04 20:46 | 39.00734 | -107.32057 | 17499 ft | 343 kts | 244° |
| 2026-05-04 20:46 | 38.99655 | -107.34778 | 17020 ft | 340 kts | 244° |
| 2026-05-04 20:46 | 38.98583 | -107.37480 | 16542 ft | 338 kts | 243° |
| 2026-05-04 20:46 | 38.97532 | -107.40122 | 16088 ft | 335 kts | 244° |
| 2026-05-04 20:47 | 38.96480 | -107.42769 | 15632 ft | 332 kts | 244° |
| 2026-05-04 20:47 | 38.95420 | -107.45431 | 15190 ft | 330 kts | 243° |
| 2026-05-04 20:47 | 38.94390 | -107.48015 | 14739 ft | 329 kts | 244° |
| 2026-05-04 20:47 | 38.93340 | -107.50621 | 14295 ft | 328 kts | 241° |
| 2026-05-04 20:48 | 38.91953 | -107.52942 | 13815 ft | 330 kts | 226° |
| 2026-05-04 20:48 | 38.90253 | -107.54934 | 13311 ft | 331 kts | 224° |
| 2026-05-04 20:48 | 38.88549 | -107.56914 | 12824 ft | 330 kts | 224° |
| 2026-05-04 20:48 | 38.86864 | -107.58909 | 12377 ft | 328 kts | 224° |
| 2026-05-04 20:49 | 38.85205 | -107.60889 | 11924 ft | 324 kts | 225° |
| 2026-05-04 20:49 | 38.83561 | -107.62861 | 11478 ft | 322 kts | 224° |
| 2026-05-04 20:49 | 38.81940 | -107.64807 | 11202 ft | 314 kts | 225° |
| 2026-05-04 20:49 | 38.80376 | -107.66682 | 11059 ft | 303 kts | 225° |
| 2026-05-04 20:50 | 38.79056 | -107.68699 | 10914 ft | 291 kts | 242° |
| 2026-05-04 20:50 | 38.78346 | -107.71076 | 10723 ft | 283 kts | 256° |
| 2026-05-04 20:50 | 38.77929 | -107.73507 | 10542 ft | 276 kts | 258° |
| 2026-05-04 20:50 | 38.77545 | -107.75891 | 10341 ft | 271 kts | 257° |
| 2026-05-04 20:51 | 38.77163 | -107.78229 | 10162 ft | 265 kts | 257° |
| 2026-05-04 20:51 | 38.76779 | -107.80519 | 9984 ft | 260 kts | 257° |
| 2026-05-04 20:51 | 38.76398 | -107.82758 | 9893 ft | 254 kts | 257° |
| 2026-05-04 20:51 | 38.76023 | -107.84943 | 9735 ft | 248 kts | 257° |
| 2026-05-04 20:52 | 38.75590 | -107.87066 | 9541 ft | 244 kts | 245° |
| 2026-05-04 20:52 | 38.74477 | -107.88631 | 9347 ft | 241 kts | 209° |
| 2026-05-04 20:52 | 38.72871 | -107.89128 | 9179 ft | 236 kts | 190° |
| 2026-05-04 20:52 | 38.71280 | -107.89302 | 8919 ft | 222 kts | 186° |
| 2026-05-04 20:53 | 38.69813 | -107.89340 | 8719 ft | 207 kts | 184° |
| 2026-05-04 20:53 | 38.68439 | -107.89336 | 8613 ft | 187 kts | 184° |
| 2026-05-04 20:53 | 38.67171 | -107.89329 | 8382 ft | 180 kts | 185° |
| 2026-05-04 20:53 | 38.65933 | -107.89324 | 8204 ft | 177 kts | 185° |
| 2026-05-04 20:54 | 38.64736 | -107.89318 | 7987 ft | 168 kts | 186° |
| 2026-05-04 20:54 | 38.63573 | -107.89315 | 7801 ft | 168 kts | 184° |
| 2026-05-04 20:54 | 38.62390 | -107.89312 | 7590 ft | 170 kts | 185° |
| 2026-05-04 20:54 | 38.61215 | -107.89306 | 7382 ft | 169 kts | 186° |
| 2026-05-04 20:55 | 38.60038 | -107.89301 | 7165 ft | 172 kts | 184° |
| 2026-05-04 20:55 | 38.58851 | -107.89258 | 7014 ft | 168 kts | 181° |
| 2026-05-04 20:55 | 38.57681 | -107.89288 | 6826 ft | 171 kts | 183° |
| 2026-05-04 20:55 | 38.56465 | -107.89284 | 6479 ft | 179 kts | 184° |
| 2026-05-04 20:56 | 38.55212 | -107.89254 | 6179 ft | 177 kts | 188° |
| 2026-05-04 20:56 | 38.54007 | -107.89287 | 5933 ft | 168 kts | 187° |
| 2026-05-04 20:56 | 38.52867 | -107.89273 | 5720 ft | 159 kts | 185° |
| 2026-05-04 20:56 | 38.51837 | -107.89269 | 5725 ft | 133 kts | 180° |
| 2026-05-04 20:57 | 38.51062 | -107.89269 | 5732 ft | 88 kts | 180° |
| 2026-05-04 20:57 | 38.50845 | -107.89265 | 5737 ft | 8 kts | 180° |
| 2026-05-04 20:57 | 38.50778 | -107.89266 | 5737 ft | 13 kts | 181° |
| 2026-05-04 20:57 | 38.50668 | -107.89265 | 5739 ft | 19 kts | 177° |
| 2026-05-04 20:58 | 38.50566 | -107.89273 | 5741 ft | 11 kts | 201° |
| 2026-05-04 20:58 | 38.50539 | -107.89297 | 5746 ft | 1 kts | 228° |
| 2026-05-04 20:58 | 38.50523 | -107.89347 | 5740 ft | 12 kts | 255° |
| 2026-05-04 20:58 | 38.50496 | -107.89439 | 5734 ft | 9 kts | 236° |
| 2026-05-04 20:59 | 38.50456 | -107.89502 | 5740 ft | 9 kts | 230° |
| 2026-05-04 20:59 | 38.50395 | -107.89593 | 5736 ft | 32 kts | 229° |
| 2026-05-04 20:59 | 38.50257 | -107.89797 | 5730 ft | 15 kts | 228° |
| 2026-05-04 20:59 | 38.50210 | -107.89865 | 5728 ft | 6 kts | 230° |
| 2026-05-04 21:00 | 38.50168 | -107.89917 | 5733 ft | 6 kts | 191° |
| 2026-05-04 21:00 | 38.50148 | -107.89905 | 5731 ft | 0 kts | 155° |
| 2026-05-04 21:00 | 38.50141 | -107.89898 | 5732 ft | 5 kts | 139° |
| 2026-05-04 21:00 | 38.50111 | -107.89866 | 5724 ft | 4 kts | 171° |
| 2026-05-04 21:01 | 38.50085 | -107.89891 | 5730 ft | 0 kts | 231° |
| 2026-05-04 21:17 | 38.50087 | -107.89888 | 5733 ft | 2 kts | 232° |
| 2026-05-04 21:18 | 38.50098 | -107.89869 | 5727 ft | 3 kts | 244° |
| 2026-05-04 21:18 | 38.50105 | -107.89845 | 5731 ft | 3 kts | 255° |
| 2026-05-04 21:18 | 38.50108 | -107.89828 | 5729 ft | 1 kts | 256° |
| 2026-05-04 21:18 | 38.50109 | -107.89824 | 5728 ft | 0 kts | 256° |
| 2026-05-04 21:22 | 38.50108 | -107.89843 | 5732 ft | 3 kts | 259° |
| 2026-05-04 21:22 | 38.50076 | -107.89813 | 5730 ft | 0 kts | 114° |
| 2026-05-04 21:23 | 38.50076 | -107.89812 | 5730 ft | 0 kts | 114° |
| 2026-05-04 21:23 | 38.50074 | -107.89808 | 5731 ft | 4 kts | 121° |
| 2026-05-04 21:23 | 38.50043 | -107.89755 | 5726 ft | 8 kts | 112° |
| 2026-05-04 21:24 | 38.50059 | -107.89686 | 5728 ft | 8 kts | 53° |
| 2026-05-04 21:24 | 38.50091 | -107.89592 | 5725 ft | 15 kts | 113° |
| 2026-05-04 21:24 | 38.49874 | -107.89347 | 5719 ft | 85 kts | 139° |
| 2026-05-04 21:24 | 38.49195 | -107.88627 | 5728 ft | 163 kts | 140° |
| 2026-05-04 21:25 | 38.48471 | -107.87563 | 6822 ft | 159 kts | 126° |
| 2026-05-04 21:25 | 38.47969 | -107.86169 | 7307 ft | 181 kts | 102° |
| 2026-05-04 21:25 | 38.47998 | -107.84560 | 7343 ft | 185 kts | 73° |
| 2026-05-04 21:25 | 38.48551 | -107.83120 | 7422 ft | 182 kts | 49° |
| 2026-05-04 21:26 | 38.49327 | -107.81740 | 7366 ft | 220 kts | 43° |
| 2026-05-04 21:26 | 38.50778 | -107.81366 | 7661 ft | 236 kts | 346° |
| 2026-05-04 21:26 | 38.52548 | -107.81902 | 7723 ft | 277 kts | 340° |
| 2026-05-04 21:26 | 38.54390 | -107.82786 | 8008 ft | 286 kts | 320° |
| 2026-05-04 21:27 | 38.55837 | -107.83376 | 9252 ft | 195 kts | 32° |
| 2026-05-04 21:27 | 38.56418 | -107.81864 | 7984 ft | 233 kts | 107° |
| 2026-05-04 21:27 | 38.55304 | -107.80116 | 7145 ft | 253 kts | 147° |
| 2026-05-04 21:27 | 38.53797 | -107.79284 | 7226 ft | 225 kts | 178° |
| 2026-05-04 21:28 | 38.52276 | -107.79486 | 6897 ft | 225 kts | 197° |
| 2026-05-04 21:28 | 38.50741 | -107.79913 | 6636 ft | 228 kts | 194° |
| 2026-05-04 21:28 | 38.49185 | -107.80157 | 6609 ft | 216 kts | 188° |
| 2026-05-04 21:28 | 38.47618 | -107.80329 | 6777 ft | 242 kts | 191° |
| 2026-05-04 21:29 | 38.46008 | -107.80661 | 7922 ft | 227 kts | 196° |
| 2026-05-04 21:29 | 38.44350 | -107.81129 | 7859 ft | 265 kts | 194° |
| 2026-05-04 21:29 | 38.42536 | -107.81578 | 8078 ft | 267 kts | 192° |
| 2026-05-04 21:29 | 38.40608 | -107.81909 | 8041 ft | 298 kts | 190° |
| 2026-05-04 21:30 | 38.38468 | -107.82198 | 8277 ft | 320 kts | 188° |
| 2026-05-04 21:30 | 38.36273 | -107.82783 | 8208 ft | 332 kts | 204° |
| 2026-05-04 21:30 | 38.34408 | -107.84193 | 8898 ft | 279 kts | 209° |
| 2026-05-04 21:30 | 38.32765 | -107.85077 | 9585 ft | 249 kts | 207° |
| 2026-05-04 21:31 | 38.29703 | -107.87053 | 10411 ft | 254 kts | 208° |
| 2026-05-04 21:31 | 38.28113 | -107.88025 | 10399 ft | 256 kts | 209° |
| 2026-05-04 21:31 | 38.26471 | -107.89006 | 10379 ft | 272 kts | 206° |
| 2026-05-04 21:32 | 38.24678 | -107.89824 | 10900 ft | 253 kts | 210° |
| 2026-05-04 21:32 | 38.22664 | -107.91227 | 12664 ft | 348 kts | 210° |
| 2026-05-04 21:32 | 38.21133 | -107.92849 | 14790 ft | 242 kts | 243° |
| 2026-05-04 21:32 | 38.20775 | -107.94674 | 13656 ft | 181 kts | 244° |
| 2026-05-04 21:33 | 38.19517 | -107.96198 | 10363 ft | 392 kts | 231° |
| 2026-05-04 21:33 | 38.17866 | -107.98296 | 12473 ft | 264 kts | 218° |
| 2026-05-04 21:33 | 38.16684 | -107.99065 | 15455 ft | 137 kts | 200° |
| 2026-05-04 21:33 | 38.15752 | -107.99164 | 15859 ft | 160 kts | 191° |
| 2026-05-04 21:34 | 38.14520 | -107.99366 | 11757 ft | 256 kts | 165° |
| 2026-05-04 21:34 | 38.11724 | -107.97723 | 10637 ft | 400 kts | 162° |
| 2026-05-04 21:34 | 38.09281 | -107.97509 | 11652 ft | 337 kts | 205° |
| 2026-05-04 21:34 | 38.07849 | -107.99814 | 9480 ft | 377 kts | 249° |
| 2026-05-04 21:35 | 38.06426 | -108.02310 | 9541 ft | 367 kts | 209° |
| 2026-05-04 21:35 | 38.04134 | -108.03678 | 9044 ft | 361 kts | 208° |
| 2026-05-04 21:35 | 38.02375 | -108.05505 | 10106 ft | 290 kts | 239° |
| 2026-05-04 21:35 | 38.02009 | -108.07715 | 11185 ft | 249 kts | 278° |
| 2026-05-04 21:36 | 38.02638 | -108.10026 | 10741 ft | 297 kts | 291° |
| 2026-05-04 21:36 | 38.03715 | -108.12544 | 8508 ft | 365 kts | 304° |
| 2026-05-04 21:36 | 38.05287 | -108.15023 | 7777 ft | 348 kts | 310° |
| 2026-05-04 21:36 | 38.06401 | -108.16921 | 8764 ft | 259 kts | 314° |
| 2026-05-04 21:37 | 38.07580 | -108.18406 | 8865 ft | 232 kts | 310° |
| 2026-05-04 21:37 | 38.08616 | -108.20130 | 8269 ft | 246 kts | 299° |
| 2026-05-04 21:37 | 38.09344 | -108.21969 | 8771 ft | 215 kts | 292° |
| 2026-05-04 21:37 | 38.10153 | -108.23581 | 8507 ft | 248 kts | 306° |
| 2026-05-04 21:38 | 38.11474 | -108.25579 | 7841 ft | 334 kts | 309° |
| 2026-05-04 21:38 | 38.12722 | -108.28575 | 7630 ft | 414 kts | 273° |